createdAt,value
2019-05-03T00:01:41.963Z,16.27
2019-05-03T00:04:12.009Z,15.53
2019-05-03T00:06:40.266Z,17.63
2019-05-03T00:09:11.899Z,18.50
2019-05-03T00:11:42.117Z,17.17
2019-05-03T00:14:12.315Z,15.83
2019-05-03T00:16:41.938Z,16.03
2019-05-03T00:19:10.222Z,15.43
2019-05-03T00:21:38.486Z,16.23
2019-05-03T00:24:06.782Z,15.17
2019-05-03T00:26:35.115Z,16.00
2019-05-03T00:29:03.480Z,15.20
2019-05-03T00:31:39.224Z,15.33
2019-05-03T00:34:09.130Z,20.60
2019-05-03T00:36:47.590Z,16.63
2019-05-03T00:39:29.400Z,16.87
2019-05-03T00:41:57.646Z,19.10
2019-05-03T00:44:25.918Z,20.90
2019-05-03T00:46:54.244Z,24.50
2019-05-03T00:49:22.709Z,27.23
2019-05-03T00:51:51.659Z,27.30
2019-05-03T00:54:22.169Z,28.53
2019-05-03T00:56:49.984Z,30.77
2019-05-03T00:59:18.257Z,31.67
2019-05-03T01:01:46.584Z,30.53
2019-05-03T01:04:14.846Z,33.57
2019-05-03T01:06:43.102Z,33.47
2019-05-03T01:09:15.806Z,30.23
2019-05-03T01:11:44.050Z,33.00
2019-05-03T01:14:12.852Z,32.83
2019-05-03T01:16:42.719Z,35.67
2019-05-03T01:19:12.072Z,32.17
2019-05-03T01:21:42.229Z,31.43
2019-05-03T01:24:32.113Z,29.63
2019-05-03T01:27:01.832Z,38.37
2019-05-03T01:29:29.772Z,30.57
2019-05-03T01:31:58.144Z,25.93
2019-05-03T01:34:26.394Z,28.63
2019-05-03T01:36:54.682Z,30.30
2019-05-03T01:39:22.932Z,28.40
2019-05-03T01:41:51.912Z,29.43
2019-05-03T01:44:22.032Z,27.87
2019-05-03T01:46:51.972Z,29.73
2019-05-03T01:49:22.853Z,31.93
2019-05-03T01:51:55.656Z,29.77
2019-05-03T01:54:23.926Z,28.83
2019-05-03T01:56:58.673Z,30.43
2019-05-03T01:59:22.703Z,30.60
2019-05-03T02:02:08.055Z,36.93
2019-05-03T02:04:43.799Z,31.57
2019-05-03T02:07:12.098Z,28.83
2019-05-03T02:09:41.680Z,32.07
2019-05-03T02:12:10.032Z,30.20
2019-05-03T02:14:38.302Z,30.67
2019-05-03T02:17:06.644Z,27.97
2019-05-03T02:19:34.898Z,26.50
2019-05-03T02:22:03.258Z,27.20
2019-05-03T02:24:32.729Z,23.67
2019-05-03T02:27:02.154Z,25.57
2019-05-03T02:29:32.401Z,27.87
2019-05-03T02:32:02.968Z,21.40
2019-05-03T02:34:32.657Z,25.07
2019-05-03T02:37:03.081Z,23.27
2019-05-03T02:39:33.189Z,17.07
2019-05-03T02:42:10.122Z,13.00
2019-05-03T02:44:30.303Z,11.03
2019-05-03T02:47:00.214Z,11.67
2019-05-03T02:49:30.100Z,14.10
2019-05-03T02:51:58.353Z,8.97
2019-05-03T02:54:27.224Z,9.80
2019-05-03T02:56:56.079Z,9.30
2019-05-03T02:59:26.394Z,9.27
2019-05-03T03:01:55.794Z,7.00
2019-05-03T03:04:26.020Z,10.07
2019-05-03T03:06:55.916Z,7.33
2019-05-03T03:09:25.989Z,7.30
2019-05-03T03:11:55.980Z,7.77
2019-05-03T03:14:25.683Z,6.43
2019-05-03T03:16:55.969Z,7.83
2019-05-03T03:19:26.321Z,7.23
2019-05-03T03:21:56.263Z,7.73
2019-05-03T03:24:26.173Z,8.87
2019-05-03T03:26:56.486Z,9.40
2019-05-03T03:29:26.620Z,8.10
2019-05-03T03:31:59.380Z,7.30
2019-05-03T03:34:29.189Z,8.77
2019-05-03T03:37:04.209Z,8.07
2019-05-03T03:39:27.796Z,4.87
2019-05-03T03:41:56.923Z,3.67
2019-05-03T03:44:25.818Z,4.40
2019-05-03T03:46:56.155Z,5.00
2019-05-03T03:49:26.339Z,2.73
2019-05-03T03:51:56.434Z,4.13
2019-05-03T03:54:26.064Z,5.03
2019-05-03T03:57:03.243Z,4.87
2019-05-03T03:59:26.496Z,3.60
2019-05-03T04:01:55.408Z,3.00
2019-05-03T04:04:26.015Z,4.03
2019-05-03T04:06:58.379Z,3.93
2019-05-03T04:09:25.591Z,4.57
2019-05-03T04:11:56.424Z,3.97
2019-05-03T04:14:27.777Z,6.50
2019-05-03T04:17:01.699Z,4.03
2019-05-03T04:19:31.515Z,4.00
2019-05-03T04:21:59.852Z,6.47
2019-05-03T04:24:28.475Z,4.70
2019-05-03T04:27:15.517Z,4.03
2019-05-03T04:29:36.690Z,10.70
2019-05-03T04:32:06.384Z,6.33
2019-05-03T04:34:35.857Z,5.70
2019-05-03T04:37:05.335Z,3.83
2019-05-03T04:39:35.894Z,5.07
2019-05-03T04:42:06.551Z,6.40
2019-05-03T04:44:35.856Z,4.63
2019-05-03T04:47:06.896Z,6.90
2019-05-03T04:49:36.177Z,4.60
2019-05-03T04:52:05.855Z,6.30
2019-05-03T04:54:44.955Z,7.03
2019-05-03T04:57:12.241Z,5.13
2019-05-03T04:59:40.488Z,5.87
2019-05-03T05:02:08.732Z,4.93
2019-05-03T05:04:37.032Z,7.47
2019-05-03T05:07:06.215Z,5.57
2019-05-03T05:09:35.111Z,6.40
2019-05-03T05:12:05.708Z,5.73
2019-05-03T05:14:35.290Z,6.27
2019-05-03T05:17:05.845Z,6.30
2019-05-03T05:19:44.591Z,4.20
2019-05-03T05:22:15.533Z,5.30
2019-05-03T05:24:44.978Z,6.43
2019-05-03T05:27:17.811Z,6.93
2019-05-03T05:29:46.227Z,9.20
2019-05-03T05:32:14.553Z,8.60
2019-05-03T05:34:42.814Z,7.53
2019-05-03T05:37:11.029Z,8.43
2019-05-03T05:39:39.211Z,8.47
2019-05-03T05:42:07.429Z,7.87
2019-05-03T05:44:35.593Z,8.30
2019-05-03T05:47:11.027Z,6.37
2019-05-03T05:49:44.351Z,6.43
2019-05-03T05:52:12.833Z,7.13
2019-05-03T05:54:42.711Z,6.40
2019-05-03T05:57:25.622Z,9.37
2019-05-03T05:59:55.692Z,7.40
2019-05-03T06:02:25.367Z,7.07
2019-05-03T06:04:54.421Z,6.60
2019-05-03T06:07:30.013Z,10.20
2019-05-03T06:10:02.721Z,6.80
2019-05-03T06:12:32.496Z,7.20
2019-05-03T06:15:02.316Z,7.33
2019-05-03T06:17:37.881Z,8.23
2019-05-03T06:20:07.981Z,7.73
2019-05-03T06:22:37.827Z,8.97
2019-05-03T06:25:20.284Z,8.60
2019-05-03T06:27:48.491Z,8.17
2019-05-03T06:30:27.037Z,8.00
2019-05-03T06:32:55.194Z,7.13
2019-05-03T06:35:24.385Z,8.67
2019-05-03T06:37:54.486Z,10.07
2019-05-03T06:40:22.685Z,8.27
2019-05-03T06:42:54.654Z,8.53
2019-05-03T06:45:20.711Z,7.33
2019-05-03T06:47:50.050Z,9.20
2019-05-03T06:50:19.383Z,9.00
2019-05-03T06:52:48.265Z,7.23
2019-05-03T06:55:16.404Z,7.27
2019-05-03T06:57:49.496Z,9.60
2019-05-03T07:00:18.003Z,8.87
2019-05-03T07:02:51.021Z,7.63
2019-05-03T07:05:25.052Z,6.17
2019-05-03T07:07:57.630Z,6.83
2019-05-03T07:10:27.493Z,11.87
2019-05-03T07:13:00.054Z,4.83
2019-05-03T07:15:28.546Z,5.77
2019-05-03T07:17:56.930Z,5.37
2019-05-03T07:20:25.596Z,5.83
2019-05-03T07:22:55.766Z,6.90
2019-05-03T07:25:25.645Z,6.30
2019-05-03T07:27:55.581Z,6.97
2019-05-03T07:30:24.758Z,7.43
2019-05-03T07:32:54.909Z,6.80
2019-05-03T07:35:25.004Z,5.60
2019-05-03T07:37:55.178Z,5.63
2019-05-03T07:40:25.070Z,7.70
2019-05-03T07:42:52.844Z,5.40
2019-05-03T07:45:21.153Z,4.90
2019-05-03T07:47:49.412Z,7.63
2019-05-03T07:50:17.745Z,5.40
2019-05-03T07:52:45.963Z,4.40
2019-05-03T07:55:14.938Z,5.70
2019-05-03T07:57:48.027Z,3.87
2019-05-03T08:00:18.106Z,4.63
2019-05-03T08:02:46.325Z,5.27
2019-05-03T08:05:15.562Z,4.30
2019-05-03T08:07:46.185Z,3.30
2019-05-03T08:10:15.266Z,4.43
2019-05-03T08:12:45.211Z,4.13
2019-05-03T08:15:15.606Z,4.47
2019-05-03T08:17:45.016Z,4.47
2019-05-03T08:20:14.413Z,5.07
2019-05-03T08:22:44.719Z,3.53
2019-05-03T08:25:14.577Z,4.83
2019-05-03T08:27:44.522Z,4.37
2019-05-03T08:30:14.737Z,4.80
2019-05-03T08:32:57.076Z,4.77
2019-05-03T08:35:26.921Z,6.27
2019-05-03T08:37:56.951Z,6.53
2019-05-03T08:40:27.036Z,4.87
2019-05-03T08:42:55.175Z,8.57
2019-05-03T08:45:25.477Z,3.43
2019-05-03T08:47:55.375Z,5.30
2019-05-03T08:50:25.494Z,6.10
2019-05-03T08:52:55.521Z,7.13
2019-05-03T08:55:25.013Z,4.80
2019-05-03T08:57:55.162Z,5.43
2019-05-03T09:00:24.970Z,13.70
2019-05-03T09:02:54.912Z,7.27
2019-05-03T09:05:25.067Z,6.50
2019-05-03T09:07:54.902Z,6.67
2019-05-03T09:10:27.348Z,4.67
2019-05-03T09:13:06.667Z,4.83
2019-05-03T09:15:36.381Z,5.63
2019-05-03T09:18:04.933Z,6.53
2019-05-03T09:20:35.407Z,6.03
2019-05-03T09:23:05.307Z,5.07
2019-05-03T09:25:35.471Z,6.80
2019-05-03T09:28:04.803Z,5.17
2019-05-03T09:30:33.201Z,6.80
2019-05-03T09:33:01.348Z,6.50
2019-05-03T09:35:33.036Z,5.77
2019-05-03T09:37:59.441Z,3.70
2019-05-03T09:40:27.603Z,7.77
2019-05-03T09:42:55.811Z,6.90
2019-05-03T09:45:24.589Z,3.87
2019-05-03T09:47:55.024Z,6.30
2019-05-03T09:50:24.594Z,4.87
2019-05-03T09:52:55.340Z,6.90
2019-05-03T09:55:41.728Z,7.07
2019-05-03T09:58:10.014Z,5.13
2019-05-03T10:00:38.317Z,7.77
2019-05-03T10:03:06.713Z,5.50
2019-05-03T10:05:35.215Z,3.50
2019-05-03T10:08:05.129Z,7.33
2019-05-03T10:10:35.704Z,8.47
2019-05-03T10:13:12.998Z,4.90
2019-05-03T10:15:36.859Z,6.57
2019-05-03T10:18:10.311Z,4.70
2019-05-03T10:20:35.229Z,3.67
2019-05-03T10:23:06.162Z,6.67
2019-05-03T10:25:35.803Z,9.53
2019-05-03T10:28:05.777Z,8.87
2019-05-03T10:30:35.415Z,11.27
2019-05-03T10:33:08.289Z,6.53
2019-05-03T10:35:36.531Z,6.07
2019-05-03T10:38:05.769Z,7.20
2019-05-03T10:40:35.743Z,6.03
2019-05-03T10:43:04.893Z,7.77
2019-05-03T10:45:35.349Z,5.30
2019-05-03T10:48:04.815Z,7.10
2019-05-03T10:50:34.844Z,4.93
2019-05-03T10:53:07.031Z,6.17
2019-05-03T10:55:35.843Z,5.77
2019-05-03T10:58:19.786Z,14.13
2019-05-03T11:00:53.244Z,5.73
2019-05-03T11:03:19.745Z,7.60
2019-05-03T11:05:47.881Z,6.03
2019-05-03T11:08:16.113Z,7.60
2019-05-03T11:10:44.573Z,8.63
2019-05-03T11:13:15.267Z,9.30
2019-05-03T11:15:44.417Z,5.87
2019-05-03T11:18:14.635Z,7.23
2019-05-03T11:20:42.724Z,5.57
2019-05-03T11:23:11.008Z,6.23
2019-05-03T11:25:39.153Z,6.47
2019-05-03T11:28:25.025Z,6.80
2019-05-03T11:31:01.336Z,6.17
2019-05-03T11:33:30.829Z,5.13
2019-05-03T11:36:04.427Z,3.53
2019-05-03T11:38:34.953Z,4.87
2019-05-03T11:41:04.853Z,6.53
2019-05-03T11:43:34.941Z,6.70
2019-05-03T11:46:03.322Z,5.33
2019-05-03T11:48:31.562Z,9.83
2019-05-03T11:50:59.767Z,5.43
2019-05-03T11:53:28.010Z,5.80
2019-05-03T11:55:56.239Z,5.40
2019-05-03T11:58:26.965Z,5.10
2019-05-03T12:01:11.217Z,8.27
2019-05-03T12:03:36.670Z,5.00
2019-05-03T12:06:05.051Z,4.97
2019-05-03T12:08:34.609Z,7.87
2019-05-03T12:11:03.055Z,4.90
2019-05-03T12:13:31.655Z,5.23
2019-05-03T12:16:00.337Z,6.17
2019-05-03T12:18:29.132Z,4.80
2019-05-03T12:20:58.818Z,5.43
2019-05-03T12:23:30.993Z,4.80
2019-05-03T12:25:58.133Z,5.43
2019-05-03T12:28:26.548Z,3.17
2019-05-03T12:30:54.813Z,4.10
2019-05-03T12:33:25.837Z,5.77
2019-05-03T12:35:55.065Z,3.93
2019-05-03T12:38:25.348Z,9.30
2019-05-03T12:40:54.486Z,3.47
2019-05-03T12:43:22.699Z,4.22
2019-05-03T12:45:51.114Z,4.72
2019-05-03T12:48:19.322Z,4.03
2019-05-03T12:50:48.202Z,5.87
2019-05-03T12:53:16.749Z,4.80
2019-05-03T12:55:44.958Z,6.60
2019-05-03T12:58:14.934Z,5.77
2019-05-03T13:00:50.898Z,5.50
2019-05-03T13:03:30.057Z,4.07
2019-05-03T13:05:58.294Z,3.37
2019-05-03T13:08:31.068Z,4.13
2019-05-03T13:10:59.270Z,4.77
2019-05-03T13:13:27.514Z,6.23
2019-05-03T13:15:55.815Z,3.60
2019-05-03T13:18:25.222Z,4.27
2019-05-03T13:20:55.659Z,5.00
2019-05-03T13:23:25.378Z,5.43
2019-05-03T13:25:53.855Z,4.60
2019-05-03T13:28:22.085Z,5.40
2019-05-03T13:30:50.291Z,6.73
2019-05-03T13:33:18.477Z,6.17
2019-05-03T13:35:46.683Z,3.40
2019-05-03T13:38:14.989Z,3.00
2019-05-03T13:40:45.193Z,6.33
2019-05-03T13:43:14.854Z,5.17
2019-05-03T13:45:44.961Z,4.13
2019-05-03T13:48:15.379Z,3.00
2019-05-03T13:50:44.605Z,6.63
2019-05-03T13:53:16.010Z,11.53
2019-05-03T13:55:44.491Z,4.87
2019-05-03T13:58:14.708Z,5.23
2019-05-03T14:00:42.802Z,4.27
2019-05-03T14:03:11.032Z,6.83
2019-05-03T14:05:39.246Z,5.30
2019-05-03T14:08:07.475Z,5.60
2019-05-03T14:10:36.090Z,5.63
2019-05-03T14:13:05.610Z,3.77
2019-05-03T14:15:34.864Z,3.20
2019-05-03T14:18:05.615Z,4.87
2019-05-03T14:20:37.762Z,4.80
2019-05-03T14:23:06.072Z,5.43
2019-05-03T14:25:35.079Z,3.40
2019-05-03T14:28:05.319Z,4.60
2019-05-03T14:30:34.665Z,4.13
2019-05-03T14:33:05.087Z,5.27
2019-05-03T14:35:34.653Z,4.87
2019-05-03T14:38:02.952Z,6.00
2019-05-03T14:40:31.191Z,3.30
2019-05-03T14:42:59.406Z,5.50
2019-05-03T14:45:27.565Z,7.30
2019-05-03T14:47:57.740Z,3.17
2019-05-03T14:50:25.665Z,5.00
2019-05-03T14:52:56.742Z,4.93
2019-05-03T14:55:34.702Z,4.83
2019-05-03T14:58:07.369Z,5.33
2019-05-03T15:00:39.993Z,5.13
2019-05-03T15:03:09.854Z,3.83
2019-05-03T15:05:38.079Z,3.97
2019-05-03T15:08:06.381Z,7.33
2019-05-03T15:10:35.030Z,3.47
2019-05-03T15:13:05.206Z,5.07
2019-05-03T15:15:34.669Z,7.37
2019-05-03T15:18:03.055Z,6.07
2019-05-03T15:20:31.345Z,4.70
2019-05-03T15:22:59.526Z,4.10
2019-05-03T15:25:27.739Z,4.27
2019-05-03T15:27:55.895Z,3.37
2019-05-03T15:30:25.575Z,4.53
2019-05-03T15:33:00.228Z,5.70
2019-05-03T15:35:25.729Z,4.40
2019-05-03T15:37:55.650Z,6.07
2019-05-03T15:40:25.123Z,5.10
2019-05-03T15:42:55.054Z,4.13
2019-05-03T15:45:28.006Z,6.70
2019-05-03T15:48:06.978Z,5.57
2019-05-03T15:50:35.629Z,3.57
2019-05-03T15:53:04.414Z,4.10
2019-05-03T15:55:32.750Z,5.67
2019-05-03T15:58:01.035Z,3.90
2019-05-03T16:00:29.180Z,2.90
2019-05-03T16:03:07.411Z,4.60
2019-05-03T16:05:27.234Z,5.20
2019-05-03T16:07:55.471Z,4.63
2019-05-03T16:10:24.933Z,5.60
2019-05-03T16:12:54.528Z,5.10
2019-05-03T16:15:24.617Z,5.10
2019-05-03T16:17:54.580Z,3.93
2019-05-03T16:20:25.084Z,7.30
2019-05-03T16:22:54.437Z,4.03
2019-05-03T16:25:24.908Z,3.73
2019-05-03T16:27:55.330Z,6.13
2019-05-03T16:30:37.767Z,5.93
2019-05-03T16:33:05.982Z,4.43
2019-05-03T16:35:34.975Z,5.20
2019-05-03T16:38:06.013Z,6.03
2019-05-03T16:40:54.542Z,3.83
2019-05-03T16:43:22.852Z,4.93
2019-05-03T16:45:51.078Z,4.43
2019-05-03T16:48:19.344Z,5.37
2019-05-03T16:50:47.624Z,4.40
2019-05-03T16:53:15.884Z,3.90
2019-05-03T16:55:44.416Z,4.63
2019-05-03T16:58:14.954Z,5.70
2019-05-03T17:00:44.675Z,6.90
2019-05-03T17:03:14.679Z,5.03
2019-05-03T17:05:50.548Z,2.63
2019-05-03T17:08:25.086Z,5.07
2019-05-03T17:11:01.003Z,6.77
2019-05-03T17:13:29.269Z,3.73
2019-05-03T17:15:57.522Z,3.40
2019-05-03T17:18:25.759Z,4.20
2019-05-03T17:20:54.798Z,4.40
2019-05-03T17:23:24.622Z,5.27
2019-05-03T17:25:53.181Z,6.37
2019-05-03T17:28:21.416Z,3.23
2019-05-03T17:30:49.659Z,7.33
2019-05-03T17:33:17.882Z,5.83
2019-05-03T17:35:46.205Z,3.43
2019-05-03T17:38:14.467Z,3.83
2019-05-03T17:40:56.811Z,4.43
2019-05-03T17:43:32.177Z,4.40
2019-05-03T17:46:02.089Z,5.13
2019-05-03T17:48:30.591Z,2.93
2019-05-03T17:50:59.001Z,5.67
2019-05-03T17:53:28.827Z,6.33
2019-05-03T17:56:15.373Z,5.77
2019-05-03T17:58:55.166Z,7.30
2019-05-03T18:01:25.185Z,3.93
2019-05-03T18:04:06.569Z,5.07
2019-05-03T18:06:29.928Z,7.10
2019-05-03T18:09:11.977Z,4.37
2019-05-03T18:11:41.910Z,4.27
2019-05-03T18:14:10.129Z,3.97
2019-05-03T18:16:38.369Z,4.97
2019-05-03T18:19:06.545Z,3.83
2019-05-03T18:21:34.945Z,5.73
2019-05-03T18:24:04.775Z,6.20
2019-05-03T18:26:35.393Z,6.93
2019-05-03T18:29:03.157Z,4.77
2019-05-03T18:31:31.345Z,4.33
2019-05-03T18:33:59.890Z,5.90
2019-05-03T18:36:28.144Z,8.60
2019-05-03T18:38:56.362Z,5.53
2019-05-03T18:41:25.488Z,5.63
2019-05-03T18:43:58.463Z,8.20
2019-05-03T18:46:35.294Z,6.43
2019-05-03T18:49:04.512Z,6.53
2019-05-03T18:51:34.412Z,7.63
2019-05-03T18:54:05.402Z,5.50
2019-05-03T18:56:34.582Z,9.53
2019-05-03T18:59:02.806Z,5.50
2019-05-03T19:01:31.020Z,6.90
2019-05-03T19:04:04.902Z,8.57
2019-05-03T19:06:34.718Z,5.07
2019-05-03T19:12:05.703Z,7.93
2019-05-03T19:14:33.942Z,6.43
2019-05-03T19:17:20.309Z,6.60
2019-05-03T19:19:58.830Z,8.03
2019-05-03T19:22:27.143Z,12.43
2019-05-03T19:24:55.395Z,8.30
2019-05-03T19:27:25.171Z,10.67
2019-05-03T19:29:55.490Z,8.53
2019-05-03T19:32:27.860Z,9.47
2019-05-03T19:34:54.929Z,9.57
2019-05-03T19:37:25.121Z,8.80
2019-05-03T19:39:55.221Z,10.43
2019-05-03T19:42:26.892Z,5.53
2019-05-03T19:44:55.135Z,6.77
2019-05-03T19:47:25.179Z,6.27
2019-05-03T19:49:54.676Z,9.53
2019-05-03T19:52:31.196Z,8.13
2019-05-03T19:54:59.707Z,5.67
2019-05-03T19:57:36.066Z,7.07
2019-05-03T20:00:08.913Z,9.13
2019-05-03T20:02:57.947Z,8.13
2019-05-03T20:05:44.946Z,4.77
2019-05-03T20:08:17.512Z,6.33
2019-05-03T20:10:45.829Z,8.20
2019-05-03T20:13:15.168Z,5.43
2019-05-03T20:15:45.036Z,6.67
2019-05-03T20:18:15.239Z,6.77
2019-05-03T20:20:44.678Z,6.23
2019-05-03T20:23:14.663Z,8.20
2019-05-03T20:25:43.181Z,5.73
2019-05-03T20:28:11.505Z,6.70
2019-05-03T20:30:39.764Z,6.80
2019-05-03T20:33:08.019Z,5.93
2019-05-03T20:35:36.475Z,8.23
2019-05-03T20:38:04.717Z,7.90
2019-05-03T20:40:34.952Z,6.40
2019-05-03T20:43:20.993Z,5.43
2019-05-03T20:45:54.703Z,6.20
2019-05-03T20:48:24.944Z,7.63
2019-05-03T20:50:55.069Z,10.50
2019-05-03T20:53:25.129Z,9.33
2019-05-03T20:55:54.558Z,14.90
2019-05-03T20:58:25.073Z,15.30
2019-05-03T21:00:54.531Z,9.63
2019-05-03T21:03:24.657Z,11.23
2019-05-03T21:05:52.726Z,13.43
2019-05-03T21:08:20.969Z,12.10
2019-05-03T21:10:49.214Z,7.90
2019-05-03T21:13:17.438Z,7.93
2019-05-03T21:15:59.168Z,7.87
2019-05-03T21:18:34.732Z,7.67
2019-05-03T21:21:16.760Z,9.07
2019-05-03T21:26:16.635Z,9.13
2019-05-03T21:28:45.082Z,9.97
2019-05-03T21:31:13.317Z,7.60
2019-05-03T21:33:41.531Z,9.03
2019-05-03T21:36:09.764Z,7.57
2019-05-03T21:38:40.725Z,9.70
2019-05-03T21:41:07.819Z,8.37
2019-05-03T21:43:36.102Z,10.63
2019-05-03T21:46:05.969Z,6.70
2019-05-03T21:48:50.696Z,10.97
2019-05-03T21:51:18.889Z,7.90
2019-05-03T21:53:47.031Z,7.90
2019-05-03T21:56:15.176Z,8.93
2019-05-03T21:58:44.713Z,8.20
2019-05-03T22:01:15.508Z,11.27
2019-05-03T22:03:44.751Z,6.63
2019-05-03T22:06:15.454Z,7.63
2019-05-03T22:08:43.154Z,9.63
2019-05-03T22:11:11.442Z,9.13
2019-05-03T22:13:40.235Z,7.53
2019-05-03T22:16:12.577Z,7.30
2019-05-03T22:18:41.353Z,8.10
2019-05-03T22:21:17.151Z,7.83
2019-05-03T22:23:59.441Z,10.60
2019-05-03T22:26:46.109Z,7.63
2019-05-03T22:29:17.117Z,10.57
2019-05-03T22:31:45.305Z,7.57
2019-05-03T22:34:15.118Z,6.93
2019-05-03T22:36:44.436Z,10.20
2019-05-03T22:39:12.905Z,10.13
2019-05-03T22:41:41.126Z,9.23
2019-05-03T22:44:09.429Z,6.87
2019-05-03T22:46:37.640Z,7.70
2019-05-03T22:49:05.780Z,7.13
2019-05-03T22:51:34.556Z,9.63
2019-05-03T22:54:04.614Z,9.30
2019-05-03T22:56:32.746Z,8.53
2019-05-03T22:59:00.976Z,8.57
2019-05-03T23:01:29.217Z,10.03
2019-05-03T23:03:57.457Z,9.87
2019-05-03T23:06:25.690Z,10.70
2019-05-03T23:08:55.949Z,9.07
2019-05-03T23:11:24.556Z,10.80
2019-05-03T23:13:57.513Z,7.73
2019-05-03T23:16:25.751Z,8.97
2019-05-03T23:18:54.818Z,8.07
2019-05-03T23:21:24.739Z,7.00
2019-05-03T23:23:54.943Z,7.70
2019-05-03T23:26:25.261Z,14.13
2019-05-03T23:28:54.980Z,7.27
2019-05-03T23:31:24.997Z,8.00
2019-05-03T23:33:54.459Z,7.90
2019-05-03T23:36:32.759Z,10.40
2019-05-03T23:38:54.478Z,7.63
2019-05-03T23:41:24.427Z,6.87
2019-05-03T23:43:52.499Z,8.40
2019-05-03T23:46:22.369Z,7.57
2019-05-03T23:48:50.588Z,6.37
2019-05-03T23:51:37.275Z,7.43
2019-05-03T23:54:06.144Z,6.77
2019-05-03T23:56:35.080Z,11.70
2019-05-03T23:59:05.377Z,6.33
